sensor_id;sensor_type;location;lat;lon;timestamp;P1;durP1;ratioP1;P2;durP2;ratioP2
29120;SDS011;16191;49.548;8.658;2023-03-01T00:00:04;19.48;;;11.63;;
29120;SDS011;16191;49.548;8.658;2023-03-01T00:02:36;20.90;;;10.95;;
29120;SDS011;16191;49.548;8.658;2023-03-01T00:05:03;19.42;;;11.88;;
29120;SDS011;16191;49.548;8.658;2023-03-01T00:07:30;22.80;;;11.88;;
29120;SDS011;16191;49.548;8.658;2023-03-01T00:09:57;22.05;;;11.85;;
29120;SDS011;16191;49.548;8.658;2023-03-01T00:12:23;20.23;;;11.77;;
29120;SDS011;16191;49.548;8.658;2023-03-01T00:14:50;22.40;;;11.98;;
29120;SDS011;16191;49.548;8.658;2023-03-01T00:17:16;21.40;;;11.63;;
29120;SDS011;16191;49.548;8.658;2023-03-01T00:19:43;16.98;;;10.25;;
29120;SDS011;16191;49.548;8.658;2023-03-01T00:22:09;17.23;;;11.02;;
29120;SDS011;16191;49.548;8.658;2023-03-01T00:24:36;22.88;;;12.07;;
29120;SDS011;16191;49.548;8.658;2023-03-01T00:27:02;21.40;;;12.77;;
29120;SDS011;16191;49.548;8.658;2023-03-01T00:29:29;17.05;;;11.10;;
29120;SDS011;16191;49.548;8.658;2023-03-01T00:31:55;20.45;;;12.45;;
29120;SDS011;16191;49.548;8.658;2023-03-01T00:34:22;24.52;;;12.15;;
29120;SDS011;16191;49.548;8.658;2023-03-01T00:36:49;18.52;;;11.77;;
29120;SDS011;16191;49.548;8.658;2023-03-01T00:39:15;18.38;;;10.82;;
29120;SDS011;16191;49.548;8.658;2023-03-01T00:41:42;20.98;;;11.93;;
29120;SDS011;16191;49.548;8.658;2023-03-01T00:44:09;21.70;;;12.02;;
29120;SDS011;16191;49.548;8.658;2023-03-01T00:46:36;21.25;;;12.77;;
29120;SDS011;16191;49.548;8.658;2023-03-01T00:49:03;25.23;;;12.48;;
29120;SDS011;16191;49.548;8.658;2023-03-01T00:51:30;22.67;;;12.63;;
29120;SDS011;16191;49.548;8.658;2023-03-01T00:53:59;27.05;;;13.32;;
29120;SDS011;16191;49.548;8.658;2023-03-01T00:56:28;19.33;;;11.95;;
29120;SDS011;16191;49.548;8.658;2023-03-01T00:58:55;20.33;;;12.07;;
29120;SDS011;16191;49.548;8.658;2023-03-01T01:01:23;21.17;;;12.68;;
29120;SDS011;16191;49.548;8.658;2023-03-01T01:06:36;21.63;;;12.98;;
29120;SDS011;16191;49.548;8.658;2023-03-01T01:09:05;24.08;;;13.60;;
29120;SDS011;16191;49.548;8.658;2023-03-01T01:11:53;22.88;;;13.65;;
29120;SDS011;16191;49.548;8.658;2023-03-01T01:14:19;23.60;;;12.23;;
29120;SDS011;16191;49.548;8.658;2023-03-01T01:16:47;23.88;;;13.77;;
29120;SDS011;16191;49.548;8.658;2023-03-01T01:19:16;23.08;;;12.75;;
29120;SDS011;16191;49.548;8.658;2023-03-01T01:21:43;25.98;;;12.90;;
29120;SDS011;16191;49.548;8.658;2023-03-01T01:24:09;22.42;;;12.93;;
29120;SDS011;16191;49.548;8.658;2023-03-01T01:26:36;21.38;;;13.50;;
29120;SDS011;16191;49.548;8.658;2023-03-01T01:29:03;28.55;;;13.15;;
29120;SDS011;16191;49.548;8.658;2023-03-01T01:31:31;25.73;;;13.57;;
29120;SDS011;16191;49.548;8.658;2023-03-01T01:33:59;21.35;;;13.23;;
29120;SDS011;16191;49.548;8.658;2023-03-01T01:36:28;22.00;;;12.85;;
29120;SDS011;16191;49.548;8.658;2023-03-01T01:38:55;28.33;;;13.90;;
29120;SDS011;16191;49.548;8.658;2023-03-01T01:41:22;21.77;;;13.05;;
29120;SDS011;16191;49.548;8.658;2023-03-01T01:44:09;21.95;;;11.98;;
29120;SDS011;16191;49.548;8.658;2023-03-01T01:52:27;27.27;;;13.75;;
29120;SDS011;16191;49.548;8.658;2023-03-01T01:54:59;25.17;;;13.70;;
29120;SDS011;16191;49.548;8.658;2023-03-01T01:57:32;23.15;;;12.75;;
29120;SDS011;16191;49.548;8.658;2023-03-01T02:00:05;22.48;;;13.60;;
29120;SDS011;16191;49.548;8.658;2023-03-01T02:02:38;23.73;;;13.15;;
29120;SDS011;16191;49.548;8.658;2023-03-01T02:05:18;24.00;;;13.93;;
29120;SDS011;16191;49.548;8.658;2023-03-01T02:07:52;22.48;;;12.77;;
29120;SDS011;16191;49.548;8.658;2023-03-01T02:10:21;22.63;;;13.27;;
29120;SDS011;16191;49.548;8.658;2023-03-01T02:12:50;23.13;;;13.07;;
29120;SDS011;16191;49.548;8.658;2023-03-01T02:15:18;24.25;;;13.00;;
29120;SDS011;16191;49.548;8.658;2023-03-01T02:17:45;22.45;;;12.30;;
29120;SDS011;16191;49.548;8.658;2023-03-01T02:20:59;20.70;;;12.30;;
29120;SDS011;16191;49.548;8.658;2023-03-01T02:23:20;24.10;;;13.25;;
29120;SDS011;16191;49.548;8.658;2023-03-01T02:25:52;21.60;;;13.27;;
29120;SDS011;16191;49.548;8.658;2023-03-01T02:28:30;20.83;;;12.27;;
29120;SDS011;16191;49.548;8.658;2023-03-01T02:30:59;25.73;;;14.30;;
29120;SDS011;16191;49.548;8.658;2023-03-01T02:33:45;23.15;;;13.23;;
29120;SDS011;16191;49.548;8.658;2023-03-01T02:36:34;23.63;;;13.82;;
29120;SDS011;16191;49.548;8.658;2023-03-01T02:39:26;25.30;;;14.05;;
29120;SDS011;16191;49.548;8.658;2023-03-01T02:42:21;26.00;;;14.38;;
29120;SDS011;16191;49.548;8.658;2023-03-01T02:45:12;24.23;;;14.13;;
29120;SDS011;16191;49.548;8.658;2023-03-01T02:47:59;26.02;;;14.73;;
29120;SDS011;16191;49.548;8.658;2023-03-01T02:53:34;25.75;;;13.55;;
29120;SDS011;16191;49.548;8.658;2023-03-01T02:56:13;25.02;;;14.63;;
29120;SDS011;16191;49.548;8.658;2023-03-01T02:58:41;24.48;;;13.75;;
29120;SDS011;16191;49.548;8.658;2023-03-01T03:01:12;29.08;;;15.57;;
29120;SDS011;16191;49.548;8.658;2023-03-01T03:03:42;28.77;;;14.48;;
29120;SDS011;16191;49.548;8.658;2023-03-01T03:06:09;26.65;;;14.90;;
29120;SDS011;16191;49.548;8.658;2023-03-01T03:08:36;22.88;;;13.10;;
29120;SDS011;16191;49.548;8.658;2023-03-01T03:11:03;26.75;;;14.13;;
29120;SDS011;16191;49.548;8.658;2023-03-01T03:13:30;25.48;;;14.45;;
29120;SDS011;16191;49.548;8.658;2023-03-01T03:15:56;27.73;;;15.15;;
29120;SDS011;16191;49.548;8.658;2023-03-01T03:18:24;30.35;;;15.43;;
29120;SDS011;16191;49.548;8.658;2023-03-01T03:20:53;25.48;;;14.50;;
29120;SDS011;16191;49.548;8.658;2023-03-01T03:23:21;24.85;;;14.52;;
29120;SDS011;16191;49.548;8.658;2023-03-01T03:25:49;27.08;;;15.52;;
29120;SDS011;16191;49.548;8.658;2023-03-01T03:28:16;26.40;;;14.52;;
29120;SDS011;16191;49.548;8.658;2023-03-01T03:30:44;24.95;;;14.63;;
29120;SDS011;16191;49.548;8.658;2023-03-01T03:33:11;29.80;;;14.60;;
29120;SDS011;16191;49.548;8.658;2023-03-01T03:35:46;32.45;;;15.77;;
29120;SDS011;16191;49.548;8.658;2023-03-01T03:38:14;25.88;;;15.05;;
29120;SDS011;16191;49.548;8.658;2023-03-01T03:40:44;27.42;;;15.38;;
29120;SDS011;16191;49.548;8.658;2023-03-01T03:43:13;30.23;;;16.27;;
29120;SDS011;16191;49.548;8.658;2023-03-01T03:45:45;24.38;;;14.85;;
29120;SDS011;16191;49.548;8.658;2023-03-01T03:48:13;24.40;;;15.60;;
29120;SDS011;16191;49.548;8.658;2023-03-01T03:50:40;27.75;;;14.52;;
29120;SDS011;16191;49.548;8.658;2023-03-01T03:53:11;25.88;;;14.88;;
29120;SDS011;16191;49.548;8.658;2023-03-01T03:55:38;24.52;;;14.90;;
29120;SDS011;16191;49.548;8.658;2023-03-01T03:58:06;28.50;;;13.98;;
29120;SDS011;16191;49.548;8.658;2023-03-01T04:00:38;25.45;;;14.77;;
29120;SDS011;16191;49.548;8.658;2023-03-01T04:03:07;26.75;;;14.85;;
29120;SDS011;16191;49.548;8.658;2023-03-01T04:05:35;29.80;;;15.23;;
29120;SDS011;16191;49.548;8.658;2023-03-01T04:08:02;27.90;;;14.45;;
29120;SDS011;16191;49.548;8.658;2023-03-01T04:10:34;24.77;;;14.30;;
29120;SDS011;16191;49.548;8.658;2023-03-01T04:13:08;23.75;;;14.25;;
29120;SDS011;16191;49.548;8.658;2023-03-01T04:18:04;21.70;;;13.48;;
29120;SDS011;16191;49.548;8.658;2023-03-01T04:20:32;26.90;;;13.85;;
29120;SDS011;16191;49.548;8.658;2023-03-01T04:23:02;27.77;;;14.93;;
29120;SDS011;16191;49.548;8.658;2023-03-01T04:25:45;25.52;;;14.10;;
29120;SDS011;16191;49.548;8.658;2023-03-01T04:28:23;28.20;;;15.55;;
29120;SDS011;16191;49.548;8.658;2023-03-01T04:30:53;24.65;;;14.60;;
29120;SDS011;16191;49.548;8.658;2023-03-01T04:33:21;26.67;;;14.70;;
29120;SDS011;16191;49.548;8.658;2023-03-01T04:35:48;26.42;;;15.07;;
29120;SDS011;16191;49.548;8.658;2023-03-01T04:38:16;26.70;;;14.70;;
29120;SDS011;16191;49.548;8.658;2023-03-01T04:40:43;25.38;;;14.82;;
29120;SDS011;16191;49.548;8.658;2023-03-01T04:43:11;24.20;;;15.45;;
29120;SDS011;16191;49.548;8.658;2023-03-01T04:45:39;23.63;;;15.45;;
29120;SDS011;16191;49.548;8.658;2023-03-01T04:48:06;25.30;;;14.60;;
29120;SDS011;16191;49.548;8.658;2023-03-01T04:50:33;25.85;;;14.48;;
29120;SDS011;16191;49.548;8.658;2023-03-01T04:53:01;25.60;;;14.07;;
29120;SDS011;16191;49.548;8.658;2023-03-01T04:55:27;26.50;;;15.05;;
29120;SDS011;16191;49.548;8.658;2023-03-01T04:57:55;27.00;;;16.13;;
29120;SDS011;16191;49.548;8.658;2023-03-01T05:00:22;29.85;;;16.02;;
29120;SDS011;16191;49.548;8.658;2023-03-01T05:02:50;27.75;;;16.23;;
29120;SDS011;16191;49.548;8.658;2023-03-01T05:05:22;31.08;;;16.35;;
29120;SDS011;16191;49.548;8.658;2023-03-01T05:07:55;27.60;;;15.43;;
29120;SDS011;16191;49.548;8.658;2023-03-01T05:10:23;27.95;;;17.30;;
29120;SDS011;16191;49.548;8.658;2023-03-01T05:12:51;27.27;;;16.27;;
29120;SDS011;16191;49.548;8.658;2023-03-01T05:15:19;29.05;;;18.23;;
29120;SDS011;16191;49.548;8.658;2023-03-01T05:17:48;27.30;;;16.15;;
29120;SDS011;16191;49.548;8.658;2023-03-01T05:20:15;29.27;;;16.77;;
29120;SDS011;16191;49.548;8.658;2023-03-01T05:22:42;26.90;;;16.33;;
29120;SDS011;16191;49.548;8.658;2023-03-01T05:25:09;28.08;;;16.15;;
29120;SDS011;16191;49.548;8.658;2023-03-01T05:27:36;31.17;;;17.15;;
29120;SDS011;16191;49.548;8.658;2023-03-01T05:30:03;32.13;;;17.45;;
29120;SDS011;16191;49.548;8.658;2023-03-01T05:32:40;32.58;;;17.95;;
29120;SDS011;16191;49.548;8.658;2023-03-01T05:35:11;32.03;;;16.95;;
29120;SDS011;16191;49.548;8.658;2023-03-01T05:37:43;31.83;;;17.48;;
29120;SDS011;16191;49.548;8.658;2023-03-01T05:40:11;32.40;;;17.88;;
29120;SDS011;16191;49.548;8.658;2023-03-01T05:43:15;33.58;;;18.05;;
29120;SDS011;16191;49.548;8.658;2023-03-01T05:45:35;33.40;;;19.30;;
29120;SDS011;16191;49.548;8.658;2023-03-01T05:48:04;26.45;;;15.52;;
29120;SDS011;16191;49.548;8.658;2023-03-01T05:50:32;28.88;;;16.35;;
29120;SDS011;16191;49.548;8.658;2023-03-01T05:53:02;29.27;;;15.35;;
29120;SDS011;16191;49.548;8.658;2023-03-01T05:55:34;31.38;;;17.08;;
29120;SDS011;16191;49.548;8.658;2023-03-01T05:58:02;30.08;;;16.23;;
29120;SDS011;16191;49.548;8.658;2023-03-01T06:00:31;31.35;;;15.88;;
29120;SDS011;16191;49.548;8.658;2023-03-01T06:02:59;38.80;;;17.70;;
29120;SDS011;16191;49.548;8.658;2023-03-01T06:05:26;28.05;;;16.48;;
29120;SDS011;16191;49.548;8.658;2023-03-01T06:07:53;29.40;;;15.68;;
29120;SDS011;16191;49.548;8.658;2023-03-01T06:10:21;30.58;;;17.10;;
29120;SDS011;16191;49.548;8.658;2023-03-01T06:12:48;26.85;;;17.00;;
29120;SDS011;16191;49.548;8.658;2023-03-01T06:15:15;29.60;;;16.38;;
29120;SDS011;16191;49.548;8.658;2023-03-01T06:17:43;29.45;;;15.55;;
29120;SDS011;16191;49.548;8.658;2023-03-01T06:20:13;28.88;;;17.20;;
29120;SDS011;16191;49.548;8.658;2023-03-01T06:22:42;28.13;;;16.60;;
29120;SDS011;16191;49.548;8.658;2023-03-01T06:25:09;31.55;;;15.85;;
29120;SDS011;16191;49.548;8.658;2023-03-01T06:27:38;29.55;;;16.58;;
29120;SDS011;16191;49.548;8.658;2023-03-01T06:30:06;26.40;;;16.70;;
29120;SDS011;16191;49.548;8.658;2023-03-01T06:32:34;27.88;;;16.80;;
29120;SDS011;16191;49.548;8.658;2023-03-01T06:35:00;30.50;;;17.50;;
29120;SDS011;16191;49.548;8.658;2023-03-01T06:37:27;30.70;;;16.48;;
29120;SDS011;16191;49.548;8.658;2023-03-01T06:39:53;30.98;;;16.73;;
29120;SDS011;16191;49.548;8.658;2023-03-01T06:42:20;27.92;;;16.60;;
29120;SDS011;16191;49.548;8.658;2023-03-01T06:44:46;26.80;;;15.95;;
29120;SDS011;16191;49.548;8.658;2023-03-01T06:47:13;29.27;;;16.25;;
29120;SDS011;16191;49.548;8.658;2023-03-01T06:49:40;32.30;;;16.75;;
29120;SDS011;16191;49.548;8.658;2023-03-01T06:52:07;30.42;;;17.08;;
29120;SDS011;16191;49.548;8.658;2023-03-01T06:54:33;29.55;;;17.10;;
29120;SDS011;16191;49.548;8.658;2023-03-01T06:57:00;30.35;;;16.75;;
29120;SDS011;16191;49.548;8.658;2023-03-01T06:59:26;27.35;;;16.25;;
29120;SDS011;16191;49.548;8.658;2023-03-01T07:01:53;31.50;;;16.40;;
29120;SDS011;16191;49.548;8.658;2023-03-01T07:04:19;31.52;;;17.13;;
29120;SDS011;16191;49.548;8.658;2023-03-01T07:06:46;32.30;;;16.23;;
29120;SDS011;16191;49.548;8.658;2023-03-01T07:09:18;27.67;;;16.63;;
29120;SDS011;16191;49.548;8.658;2023-03-01T07:11:46;26.50;;;15.88;;
29120;SDS011;16191;49.548;8.658;2023-03-01T07:14:13;25.98;;;16.45;;
29120;SDS011;16191;49.548;8.658;2023-03-01T07:16:39;28.80;;;16.67;;
29120;SDS011;16191;49.548;8.658;2023-03-01T07:19:06;29.60;;;16.95;;
29120;SDS011;16191;49.548;8.658;2023-03-01T07:21:32;27.98;;;16.23;;
29120;SDS011;16191;49.548;8.658;2023-03-01T07:23:59;24.83;;;14.45;;
29120;SDS011;16191;49.548;8.658;2023-03-01T07:26:26;28.48;;;15.38;;
29120;SDS011;16191;49.548;8.658;2023-03-01T07:28:52;32.00;;;16.88;;
29120;SDS011;16191;49.548;8.658;2023-03-01T07:31:19;29.92;;;15.88;;
29120;SDS011;16191;49.548;8.658;2023-03-01T07:33:45;31.85;;;17.23;;
29120;SDS011;16191;49.548;8.658;2023-03-01T07:36:12;23.90;;;15.45;;
29120;SDS011;16191;49.548;8.658;2023-03-01T07:38:38;29.02;;;16.10;;
29120;SDS011;16191;49.548;8.658;2023-03-01T07:41:05;27.15;;;15.60;;
29120;SDS011;16191;49.548;8.658;2023-03-01T07:43:32;25.27;;;16.02;;
29120;SDS011;16191;49.548;8.658;2023-03-01T07:45:59;26.48;;;15.05;;
29120;SDS011;16191;49.548;8.658;2023-03-01T07:48:30;24.92;;;14.15;;
29120;SDS011;16191;49.548;8.658;2023-03-01T07:51:01;36.08;;;16.85;;
29120;SDS011;16191;49.548;8.658;2023-03-01T07:53:29;31.27;;;15.07;;
29120;SDS011;16191;49.548;8.658;2023-03-01T07:56:01;28.70;;;16.85;;
29120;SDS011;16191;49.548;8.658;2023-03-01T07:58:33;30.58;;;18.75;;
29120;SDS011;16191;49.548;8.658;2023-03-01T08:01:04;29.23;;;17.35;;
29120;SDS011;16191;49.548;8.658;2023-03-01T08:03:32;28.25;;;17.83;;
29120;SDS011;16191;49.548;8.658;2023-03-01T08:06:00;32.72;;;18.38;;
29120;SDS011;16191;49.548;8.658;2023-03-01T08:08:27;25.92;;;15.98;;
29120;SDS011;16191;49.548;8.658;2023-03-01T08:10:58;30.50;;;15.70;;
29120;SDS011;16191;49.548;8.658;2023-03-01T08:13:26;25.40;;;14.93;;
29120;SDS011;16191;49.548;8.658;2023-03-01T08:15:52;27.15;;;15.93;;
29120;SDS011;16191;49.548;8.658;2023-03-01T08:18:20;29.73;;;16.85;;
29120;SDS011;16191;49.548;8.658;2023-03-01T08:20:47;29.40;;;16.45;;
29120;SDS011;16191;49.548;8.658;2023-03-01T08:23:14;23.15;;;14.15;;
29120;SDS011;16191;49.548;8.658;2023-03-01T08:25:41;26.20;;;15.23;;
29120;SDS011;16191;49.548;8.658;2023-03-01T08:28:07;30.45;;;15.27;;
29120;SDS011;16191;49.548;8.658;2023-03-01T08:30:34;30.40;;;16.13;;
29120;SDS011;16191;49.548;8.658;2023-03-01T08:33:01;26.50;;;16.20;;
29120;SDS011;16191;49.548;8.658;2023-03-01T08:35:27;27.15;;;15.38;;
29120;SDS011;16191;49.548;8.658;2023-03-01T08:37:54;25.30;;;13.80;;
29120;SDS011;16191;49.548;8.658;2023-03-01T08:40:20;24.13;;;14.55;;
29120;SDS011;16191;49.548;8.658;2023-03-01T08:42:47;24.42;;;15.00;;
29120;SDS011;16191;49.548;8.658;2023-03-01T08:45:14;25.83;;;14.90;;
29120;SDS011;16191;49.548;8.658;2023-03-01T08:47:44;24.90;;;16.65;;
29120;SDS011;16191;49.548;8.658;2023-03-01T08:50:11;25.92;;;15.85;;
29120;SDS011;16191;49.548;8.658;2023-03-01T08:52:38;24.23;;;15.15;;
29120;SDS011;16191;49.548;8.658;2023-03-01T08:55:05;29.02;;;15.13;;
29120;SDS011;16191;49.548;8.658;2023-03-01T08:57:32;24.40;;;15.20;;
29120;SDS011;16191;49.548;8.658;2023-03-01T08:59:58;29.13;;;15.50;;
29120;SDS011;16191;49.548;8.658;2023-03-01T09:02:25;25.25;;;14.07;;
29120;SDS011;16191;49.548;8.658;2023-03-01T09:04:51;24.10;;;14.88;;
29120;SDS011;16191;49.548;8.658;2023-03-01T09:07:18;23.67;;;14.20;;
29120;SDS011;16191;49.548;8.658;2023-03-01T09:09:44;31.83;;;16.90;;
29120;SDS011;16191;49.548;8.658;2023-03-01T09:12:11;26.08;;;15.30;;
29120;SDS011;16191;49.548;8.658;2023-03-01T09:14:37;27.20;;;14.88;;
29120;SDS011;16191;49.548;8.658;2023-03-01T09:17:05;26.08;;;15.45;;
29120;SDS011;16191;49.548;8.658;2023-03-01T09:19:31;24.60;;;15.05;;
29120;SDS011;16191;49.548;8.658;2023-03-01T09:21:58;27.30;;;15.63;;
29120;SDS011;16191;49.548;8.658;2023-03-01T09:24:24;25.52;;;15.68;;
29120;SDS011;16191;49.548;8.658;2023-03-01T09:26:54;26.70;;;15.75;;
29120;SDS011;16191;49.548;8.658;2023-03-01T09:29:22;29.33;;;16.08;;
29120;SDS011;16191;49.548;8.658;2023-03-01T09:31:49;26.42;;;15.05;;
29120;SDS011;16191;49.548;8.658;2023-03-01T09:34:16;26.17;;;14.85;;
29120;SDS011;16191;49.548;8.658;2023-03-01T09:36:49;23.60;;;14.82;;
29120;SDS011;16191;49.548;8.658;2023-03-01T09:39:17;27.35;;;14.68;;
29120;SDS011;16191;49.548;8.658;2023-03-01T09:41:49;24.80;;;14.93;;
29120;SDS011;16191;49.548;8.658;2023-03-01T09:44:28;33.33;;;16.17;;
29120;SDS011;16191;49.548;8.658;2023-03-01T09:47:12;25.10;;;15.40;;
29120;SDS011;16191;49.548;8.658;2023-03-01T09:52:40;23.60;;;15.18;;
29120;SDS011;16191;49.548;8.658;2023-03-01T09:55:27;26.02;;;15.18;;
29120;SDS011;16191;49.548;8.658;2023-03-01T10:01:10;26.13;;;14.70;;
29120;SDS011;16191;49.548;8.658;2023-03-01T10:03:58;26.92;;;15.60;;
29120;SDS011;16191;49.548;8.658;2023-03-01T10:06:38;23.92;;;15.25;;
29120;SDS011;16191;49.548;8.658;2023-03-01T10:09:11;24.80;;;15.02;;
29120;SDS011;16191;49.548;8.658;2023-03-01T10:11:43;22.50;;;14.60;;
29120;SDS011;16191;49.548;8.658;2023-03-01T10:14:33;27.17;;;15.93;;
29120;SDS011;16191;49.548;8.658;2023-03-01T10:22:47;25.15;;;15.23;;
29120;SDS011;16191;49.548;8.658;2023-03-01T10:25:21;29.38;;;14.98;;
29120;SDS011;16191;49.548;8.658;2023-03-01T10:28:16;25.23;;;13.57;;
29120;SDS011;16191;49.548;8.658;2023-03-01T10:30:46;26.00;;;15.60;;
29120;SDS011;16191;49.548;8.658;2023-03-01T10:33:20;23.65;;;15.40;;
29120;SDS011;16191;49.548;8.658;2023-03-01T10:35:50;26.38;;;13.85;;
29120;SDS011;16191;49.548;8.658;2023-03-01T10:38:18;22.85;;;13.90;;
29120;SDS011;16191;49.548;8.658;2023-03-01T10:40:59;23.77;;;14.15;;
29120;SDS011;16191;49.548;8.658;2023-03-01T10:43:55;26.42;;;14.95;;
29120;SDS011;16191;49.548;8.658;2023-03-01T10:46:29;24.95;;;15.05;;
29120;SDS011;16191;49.548;8.658;2023-03-01T10:49:12;23.83;;;15.02;;
29120;SDS011;16191;49.548;8.658;2023-03-01T10:51:42;20.92;;;13.95;;
29120;SDS011;16191;49.548;8.658;2023-03-01T10:54:20;22.45;;;14.65;;
29120;SDS011;16191;49.548;8.658;2023-03-01T10:56:50;19.87;;;13.70;;
29120;SDS011;16191;49.548;8.658;2023-03-01T10:59:30;22.40;;;15.07;;
29120;SDS011;16191;49.548;8.658;2023-03-01T11:02:46;19.10;;;13.55;;
29120;SDS011;16191;49.548;8.658;2023-03-01T11:07:23;29.17;;;14.52;;
29120;SDS011;16191;49.548;8.658;2023-03-01T11:09:50;21.77;;;14.10;;
29120;SDS011;16191;49.548;8.658;2023-03-01T11:12:17;26.05;;;14.57;;
29120;SDS011;16191;49.548;8.658;2023-03-01T11:14:51;23.85;;;15.00;;
29120;SDS011;16191;49.548;8.658;2023-03-01T11:17:21;23.38;;;14.35;;
29120;SDS011;16191;49.548;8.658;2023-03-01T11:20:05;22.48;;;15.20;;
29120;SDS011;16191;49.548;8.658;2023-03-01T11:22:45;23.15;;;15.63;;
29120;SDS011;16191;49.548;8.658;2023-03-01T11:25:16;20.55;;;13.15;;
29120;SDS011;16191;49.548;8.658;2023-03-01T11:27:45;20.63;;;13.40;;
29120;SDS011;16191;49.548;8.658;2023-03-01T11:30:29;24.00;;;14.73;;
29120;SDS011;16191;49.548;8.658;2023-03-01T11:33:48;20.25;;;13.80;;
29120;SDS011;16191;49.548;8.658;2023-03-01T11:38:55;26.25;;;14.93;;
29120;SDS011;16191;49.548;8.658;2023-03-01T11:41:30;26.00;;;16.60;;
29120;SDS011;16191;49.548;8.658;2023-03-01T11:44:07;22.27;;;14.02;;
29120;SDS011;16191;49.548;8.658;2023-03-01T11:55:19;20.83;;;14.32;;
29120;SDS011;16191;49.548;8.658;2023-03-01T11:57:59;20.73;;;13.18;;
29120;SDS011;16191;49.548;8.658;2023-03-01T12:00:45;18.35;;;12.43;;
29120;SDS011;16191;49.548;8.658;2023-03-01T12:03:31;20.20;;;12.95;;
29120;SDS011;16191;49.548;8.658;2023-03-01T12:06:12;22.05;;;13.30;;
29120;SDS011;16191;49.548;8.658;2023-03-01T12:09:06;22.92;;;13.10;;
29120;SDS011;16191;49.548;8.658;2023-03-01T12:23:25;19.85;;;13.70;;
29120;SDS011;16191;49.548;8.658;2023-03-01T12:29:02;22.48;;;14.88;;
29120;SDS011;16191;49.548;8.658;2023-03-01T12:34:37;19.92;;;13.40;;
29120;SDS011;16191;49.548;8.658;2023-03-01T12:45:45;24.25;;;12.55;;
29120;SDS011;16191;49.548;8.658;2023-03-01T12:50:58;22.88;;;14.45;;
29120;SDS011;16191;49.548;8.658;2023-03-01T12:53:29;22.05;;;14.40;;
29120;SDS011;16191;49.548;8.658;2023-03-01T12:56:03;21.95;;;13.98;;
29120;SDS011;16191;49.548;8.658;2023-03-01T13:01:38;26.23;;;15.07;;
29120;SDS011;16191;49.548;8.658;2023-03-01T13:15:34;17.92;;;12.75;;
29120;SDS011;16191;49.548;8.658;2023-03-01T13:18:03;20.90;;;13.18;;
29120;SDS011;16191;49.548;8.658;2023-03-01T13:23:31;18.90;;;12.77;;
29120;SDS011;16191;49.548;8.658;2023-03-01T13:26:08;19.02;;;12.73;;
29120;SDS011;16191;49.548;8.658;2023-03-01T13:33:44;19.45;;;12.35;;
29120;SDS011;16191;49.548;8.658;2023-03-01T13:38:57;21.00;;;11.40;;
29120;SDS011;16191;49.548;8.658;2023-03-01T13:44:26;20.33;;;11.90;;
29120;SDS011;16191;49.548;8.658;2023-03-01T13:55:27;17.63;;;10.38;;
29120;SDS011;16191;49.548;8.658;2023-03-01T13:58:02;13.98;;;10.23;;
29120;SDS011;16191;49.548;8.658;2023-03-01T14:00:40;21.13;;;9.63;;
29120;SDS011;16191;49.548;8.658;2023-03-01T14:03:12;14.07;;;9.65;;
29120;SDS011;16191;49.548;8.658;2023-03-01T14:08:39;15.25;;;10.40;;
29120;SDS011;16191;49.548;8.658;2023-03-01T14:11:28;15.80;;;10.07;;
29120;SDS011;16191;49.548;8.658;2023-03-01T14:14:25;15.50;;;10.55;;
29120;SDS011;16191;49.548;8.658;2023-03-01T14:17:10;15.60;;;9.95;;
29120;SDS011;16191;49.548;8.658;2023-03-01T14:19:42;21.25;;;9.90;;
29120;SDS011;16191;49.548;8.658;2023-03-01T14:22:22;17.00;;;9.48;;
29120;SDS011;16191;49.548;8.658;2023-03-01T14:25:03;16.02;;;10.13;;
29120;SDS011;16191;49.548;8.658;2023-03-01T14:27:36;16.60;;;10.00;;
29120;SDS011;16191;49.548;8.658;2023-03-01T14:30:26;15.02;;;9.10;;
29120;SDS011;16191;49.548;8.658;2023-03-01T14:32:58;13.85;;;9.40;;
29120;SDS011;16191;49.548;8.658;2023-03-01T14:35:27;14.98;;;9.73;;
29120;SDS011;16191;49.548;8.658;2023-03-01T14:37:56;16.52;;;9.55;;
29120;SDS011;16191;49.548;8.658;2023-03-01T14:40:33;13.00;;;8.88;;
29120;SDS011;16191;49.548;8.658;2023-03-01T14:43:04;15.82;;;9.52;;
29120;SDS011;16191;49.548;8.658;2023-03-01T14:45:37;13.95;;;8.68;;
29120;SDS011;16191;49.548;8.658;2023-03-01T14:48:04;13.20;;;8.68;;
29120;SDS011;16191;49.548;8.658;2023-03-01T14:50:39;16.02;;;10.50;;
29120;SDS011;16191;49.548;8.658;2023-03-01T14:53:15;15.02;;;9.98;;
29120;SDS011;16191;49.548;8.658;2023-03-01T14:55:54;12.25;;;8.43;;
29120;SDS011;16191;49.548;8.658;2023-03-01T14:58:23;15.80;;;8.68;;
29120;SDS011;16191;49.548;8.658;2023-03-01T15:00:52;11.60;;;8.30;;
29120;SDS011;16191;49.548;8.658;2023-03-01T15:06:23;11.93;;;9.10;;
29120;SDS011;16191;49.548;8.658;2023-03-01T15:08:51;14.48;;;9.35;;
29120;SDS011;16191;49.548;8.658;2023-03-01T15:11:21;11.60;;;8.60;;
29120;SDS011;16191;49.548;8.658;2023-03-01T15:13:59;13.65;;;9.05;;
29120;SDS011;16191;49.548;8.658;2023-03-01T15:16:26;13.98;;;9.05;;
29120;SDS011;16191;49.548;8.658;2023-03-01T15:18:59;11.52;;;8.68;;
29120;SDS011;16191;49.548;8.658;2023-03-01T15:21:35;11.32;;;8.10;;
29120;SDS011;16191;49.548;8.658;2023-03-01T15:26:42;10.60;;;7.28;;
29120;SDS011;16191;49.548;8.658;2023-03-01T15:29:16;10.27;;;7.47;;
29120;SDS011;16191;49.548;8.658;2023-03-01T15:31:55;13.65;;;7.85;;
29120;SDS011;16191;49.548;8.658;2023-03-01T15:34:34;11.60;;;8.50;;
29120;SDS011;16191;49.548;8.658;2023-03-01T15:37:06;11.60;;;7.72;;
29120;SDS011;16191;49.548;8.658;2023-03-01T15:39:54;12.35;;;8.55;;
29120;SDS011;16191;49.548;8.658;2023-03-01T15:45:11;11.60;;;7.78;;
29120;SDS011;16191;49.548;8.658;2023-03-01T15:47:48;11.40;;;7.35;;
29120;SDS011;16191;49.548;8.658;2023-03-01T15:50:28;13.80;;;8.68;;
29120;SDS011;16191;49.548;8.658;2023-03-01T15:52:57;13.55;;;8.23;;
29120;SDS011;16191;49.548;8.658;2023-03-01T15:55:29;11.10;;;8.02;;
29120;SDS011;16191;49.548;8.658;2023-03-01T16:00:46;9.98;;;7.57;;
29120;SDS011;16191;49.548;8.658;2023-03-01T16:03:26;12.27;;;8.35;;
29120;SDS011;16191;49.548;8.658;2023-03-01T16:05:53;12.43;;;8.23;;
29120;SDS011;16191;49.548;8.658;2023-03-01T16:08:20;10.77;;;7.25;;
29120;SDS011;16191;49.548;8.658;2023-03-01T16:10:46;11.90;;;6.95;;
29120;SDS011;16191;49.548;8.658;2023-03-01T16:13:16;12.52;;;7.78;;
29120;SDS011;16191;49.548;8.658;2023-03-01T16:15:43;12.82;;;8.70;;
29120;SDS011;16191;49.548;8.658;2023-03-01T16:18:10;12.50;;;8.00;;
29120;SDS011;16191;49.548;8.658;2023-03-01T16:20:38;13.55;;;8.27;;
29120;SDS011;16191;49.548;8.658;2023-03-01T16:23:06;12.43;;;8.38;;
29120;SDS011;16191;49.548;8.658;2023-03-01T16:25:36;15.60;;;8.20;;
29120;SDS011;16191;49.548;8.658;2023-03-01T16:28:03;13.15;;;8.57;;
29120;SDS011;16191;49.548;8.658;2023-03-01T16:30:36;12.85;;;8.15;;
29120;SDS011;16191;49.548;8.658;2023-03-01T16:33:03;13.25;;;8.63;;
29120;SDS011;16191;49.548;8.658;2023-03-01T16:35:52;12.23;;;8.18;;
29120;SDS011;16191;49.548;8.658;2023-03-01T16:38:19;14.05;;;8.60;;
29120;SDS011;16191;49.548;8.658;2023-03-01T16:40:50;15.50;;;8.05;;
29120;SDS011;16191;49.548;8.658;2023-03-01T16:43:17;14.18;;;8.30;;
29120;SDS011;16191;49.548;8.658;2023-03-01T16:45:44;14.07;;;8.00;;